sensor_id;sensor_type;location;lat;lon;timestamp;P1;durP1;ratioP1;P2;durP2;ratioP2
70761;SDS011;58360;0.000;0.000;2023-05-16T00:00:08;17.92;;;3.15;;
70761;SDS011;58360;0.000;0.000;2023-05-16T00:02:37;15.13;;;3.20;;
70761;SDS011;58360;0.000;0.000;2023-05-16T00:05:03;20.98;;;3.88;;
70761;SDS011;58360;0.000;0.000;2023-05-16T00:07:31;16.77;;;3.15;;
70761;SDS011;58360;0.000;0.000;2023-05-16T00:09:58;17.40;;;3.05;;
70761;SDS011;58360;0.000;0.000;2023-05-16T00:12:24;22.02;;;3.38;;
70761;SDS011;58360;0.000;0.000;2023-05-16T00:14:50;16.73;;;3.38;;
70761;SDS011;58360;0.000;0.000;2023-05-16T00:17:19;17.17;;;3.53;;
70761;SDS011;58360;0.000;0.000;2023-05-16T00:19:46;17.98;;;2.65;;
70761;SDS011;58360;0.000;0.000;2023-05-16T00:22:16;16.73;;;2.65;;
70761;SDS011;58360;0.000;0.000;2023-05-16T00:24:41;13.50;;;2.75;;
70761;SDS011;58360;0.000;0.000;2023-05-16T00:27:07;14.90;;;2.72;;
70761;SDS011;58360;0.000;0.000;2023-05-16T00:29:33;16.60;;;3.05;;
70761;SDS011;58360;0.000;0.000;2023-05-16T00:32:03;21.25;;;2.83;;
70761;SDS011;58360;0.000;0.000;2023-05-16T00:34:29;19.75;;;3.22;;
70761;SDS011;58360;0.000;0.000;2023-05-16T00:36:54;15.75;;;2.85;;
70761;SDS011;58360;0.000;0.000;2023-05-16T00:39:20;12.45;;;3.10;;
70761;SDS011;58360;0.000;0.000;2023-05-16T00:41:45;23.10;;;3.05;;
70761;SDS011;58360;0.000;0.000;2023-05-16T00:44:11;18.48;;;3.20;;
70761;SDS011;58360;0.000;0.000;2023-05-16T00:46:37;21.42;;;3.03;;
70761;SDS011;58360;0.000;0.000;2023-05-16T00:49:03;16.48;;;3.10;;
70761;SDS011;58360;0.000;0.000;2023-05-16T00:51:29;19.48;;;3.80;;
70761;SDS011;58360;0.000;0.000;2023-05-16T00:53:55;15.20;;;2.67;;
70761;SDS011;58360;0.000;0.000;2023-05-16T00:56:21;18.33;;;3.35;;
70761;SDS011;58360;0.000;0.000;2023-05-16T00:58:47;19.73;;;2.70;;
70761;SDS011;58360;0.000;0.000;2023-05-16T01:01:14;12.77;;;2.53;;
70761;SDS011;58360;0.000;0.000;2023-05-16T01:03:40;20.77;;;3.17;;
70761;SDS011;58360;0.000;0.000;2023-05-16T01:06:10;13.40;;;3.08;;
70761;SDS011;58360;0.000;0.000;2023-05-16T01:08:36;18.48;;;2.63;;
70761;SDS011;58360;0.000;0.000;2023-05-16T01:22:13;12.75;;;3.28;;
70761;SDS011;58360;0.000;0.000;2023-05-16T01:27:29;12.93;;;2.70;;
70761;SDS011;58360;0.000;0.000;2023-05-16T01:29:56;21.80;;;3.20;;
70761;SDS011;58360;0.000;0.000;2023-05-16T01:32:22;23.27;;;4.10;;
70761;SDS011;58360;0.000;0.000;2023-05-16T01:34:51;20.17;;;2.85;;
70761;SDS011;58360;0.000;0.000;2023-05-16T01:37:26;16.20;;;3.63;;
70761;SDS011;58360;0.000;0.000;2023-05-16T01:40:01;13.57;;;2.88;;
70761;SDS011;58360;0.000;0.000;2023-05-16T01:42:32;16.08;;;3.03;;
70761;SDS011;58360;0.000;0.000;2023-05-16T01:45:20;19.52;;;3.22;;
70761;SDS011;58360;0.000;0.000;2023-05-16T01:50:53;18.25;;;2.92;;
70761;SDS011;58360;0.000;0.000;2023-05-16T01:53:22;18.25;;;3.03;;
70761;SDS011;58360;0.000;0.000;2023-05-16T01:55:52;22.45;;;3.17;;
70761;SDS011;58360;0.000;0.000;2023-05-16T01:58:21;21.10;;;3.28;;
70761;SDS011;58360;0.000;0.000;2023-05-16T02:00:51;16.08;;;3.00;;
70761;SDS011;58360;0.000;0.000;2023-05-16T02:03:17;19.08;;;3.45;;
70761;SDS011;58360;0.000;0.000;2023-05-16T02:05:43;19.40;;;3.03;;
70761;SDS011;58360;0.000;0.000;2023-05-16T02:08:09;18.92;;;4.40;;
70761;SDS011;58360;0.000;0.000;2023-05-16T02:10:35;15.95;;;2.72;;
70761;SDS011;58360;0.000;0.000;2023-05-16T02:13:00;15.93;;;2.90;;
70761;SDS011;58360;0.000;0.000;2023-05-16T02:15:26;18.45;;;2.72;;
70761;SDS011;58360;0.000;0.000;2023-05-16T02:17:52;13.60;;;3.17;;
70761;SDS011;58360;0.000;0.000;2023-05-16T02:20:17;20.73;;;2.72;;
70761;SDS011;58360;0.000;0.000;2023-05-16T02:22:43;13.73;;;2.58;;
70761;SDS011;58360;0.000;0.000;2023-05-16T02:25:12;15.00;;;3.20;;
70761;SDS011;58360;0.000;0.000;2023-05-16T02:27:39;15.52;;;3.25;;
70761;SDS011;58360;0.000;0.000;2023-05-16T02:30:05;27.65;;;3.72;;
70761;SDS011;58360;0.000;0.000;2023-05-16T02:32:31;15.55;;;2.92;;
70761;SDS011;58360;0.000;0.000;2023-05-16T02:34:57;17.77;;;2.85;;
70761;SDS011;58360;0.000;0.000;2023-05-16T02:37:23;21.17;;;3.00;;
70761;SDS011;58360;0.000;0.000;2023-05-16T02:39:49;19.63;;;3.08;;
70761;SDS011;58360;0.000;0.000;2023-05-16T02:42:14;21.08;;;3.28;;
70761;SDS011;58360;0.000;0.000;2023-05-16T02:44:40;19.70;;;3.35;;
70761;SDS011;58360;0.000;0.000;2023-05-16T02:47:06;16.02;;;3.25;;
70761;SDS011;58360;0.000;0.000;2023-05-16T02:49:31;18.98;;;4.00;;
70761;SDS011;58360;0.000;0.000;2023-05-16T02:51:57;21.20;;;3.63;;
70761;SDS011;58360;0.000;0.000;2023-05-16T02:54:23;13.68;;;3.20;;
70761;SDS011;58360;0.000;0.000;2023-05-16T02:56:48;18.70;;;3.03;;
70761;SDS011;58360;0.000;0.000;2023-05-16T02:59:14;17.67;;;3.45;;
70761;SDS011;58360;0.000;0.000;2023-05-16T03:01:40;19.33;;;3.03;;
70761;SDS011;58360;0.000;0.000;2023-05-16T03:04:05;15.48;;;2.97;;
70761;SDS011;58360;0.000;0.000;2023-05-16T03:06:31;17.75;;;2.95;;
70761;SDS011;58360;0.000;0.000;2023-05-16T03:08:57;15.88;;;2.72;;
70761;SDS011;58360;0.000;0.000;2023-05-16T03:11:22;14.13;;;2.95;;
70761;SDS011;58360;0.000;0.000;2023-05-16T03:13:48;13.40;;;2.95;;
70761;SDS011;58360;0.000;0.000;2023-05-16T03:16:14;21.65;;;4.00;;
70761;SDS011;58360;0.000;0.000;2023-05-16T03:18:40;17.13;;;3.35;;
70761;SDS011;58360;0.000;0.000;2023-05-16T03:21:07;18.67;;;2.85;;
70761;SDS011;58360;0.000;0.000;2023-05-16T03:23:32;13.02;;;3.00;;
70761;SDS011;58360;0.000;0.000;2023-05-16T03:25:58;18.77;;;2.42;;
70761;SDS011;58360;0.000;0.000;2023-05-16T03:28:24;13.30;;;2.47;;
70761;SDS011;58360;0.000;0.000;2023-05-16T03:30:50;12.45;;;3.20;;
70761;SDS011;58360;0.000;0.000;2023-05-16T03:33:16;21.10;;;3.65;;
70761;SDS011;58360;0.000;0.000;2023-05-16T03:35:43;14.45;;;2.63;;
70761;SDS011;58360;0.000;0.000;2023-05-16T03:38:09;22.38;;;3.03;;
70761;SDS011;58360;0.000;0.000;2023-05-16T03:40:34;13.63;;;3.08;;
70761;SDS011;58360;0.000;0.000;2023-05-16T03:43:00;12.70;;;2.80;;
70761;SDS011;58360;0.000;0.000;2023-05-16T03:45:26;19.38;;;2.90;;
70761;SDS011;58360;0.000;0.000;2023-05-16T03:47:53;18.02;;;2.65;;
70761;SDS011;58360;0.000;0.000;2023-05-16T03:50:18;10.80;;;2.90;;
70761;SDS011;58360;0.000;0.000;2023-05-16T03:52:44;14.45;;;2.88;;
70761;SDS011;58360;0.000;0.000;2023-05-16T03:55:10;14.23;;;2.70;;
70761;SDS011;58360;0.000;0.000;2023-05-16T03:57:38;16.88;;;3.33;;
70761;SDS011;58360;0.000;0.000;2023-05-16T04:00:04;14.50;;;3.53;;
70761;SDS011;58360;0.000;0.000;2023-05-16T04:02:32;16.33;;;3.17;;
70761;SDS011;58360;0.000;0.000;2023-05-16T04:04:58;23.92;;;3.10;;
70761;SDS011;58360;0.000;0.000;2023-05-16T04:07:24;15.52;;;3.40;;
70761;SDS011;58360;0.000;0.000;2023-05-16T04:09:50;17.42;;;2.55;;
70761;SDS011;58360;0.000;0.000;2023-05-16T04:12:16;12.05;;;3.03;;
70761;SDS011;58360;0.000;0.000;2023-05-16T04:14:41;15.75;;;2.72;;
70761;SDS011;58360;0.000;0.000;2023-05-16T04:17:07;13.82;;;2.80;;
70761;SDS011;58360;0.000;0.000;2023-05-16T04:19:33;16.33;;;3.15;;
70761;SDS011;58360;0.000;0.000;2023-05-16T04:21:58;15.82;;;2.58;;
70761;SDS011;58360;0.000;0.000;2023-05-16T04:24:24;14.30;;;3.45;;
70761;SDS011;58360;0.000;0.000;2023-05-16T04:26:52;13.48;;;3.20;;
70761;SDS011;58360;0.000;0.000;2023-05-16T04:29:19;17.20;;;3.00;;
70761;SDS011;58360;0.000;0.000;2023-05-16T04:31:45;19.80;;;3.20;;
70761;SDS011;58360;0.000;0.000;2023-05-16T04:34:11;18.85;;;2.97;;
70761;SDS011;58360;0.000;0.000;2023-05-16T04:36:40;16.65;;;2.40;;
70761;SDS011;58360;0.000;0.000;2023-05-16T04:39:06;18.13;;;2.53;;
70761;SDS011;58360;0.000;0.000;2023-05-16T04:41:32;19.15;;;3.67;;
70761;SDS011;58360;0.000;0.000;2023-05-16T04:44:02;19.42;;;3.08;;
70761;SDS011;58360;0.000;0.000;2023-05-16T04:46:30;14.55;;;2.75;;
70761;SDS011;58360;0.000;0.000;2023-05-16T04:48:56;20.02;;;2.72;;
70761;SDS011;58360;0.000;0.000;2023-05-16T04:51:22;13.98;;;2.78;;
70761;SDS011;58360;0.000;0.000;2023-05-16T04:53:47;14.27;;;3.15;;
70761;SDS011;58360;0.000;0.000;2023-05-16T04:56:13;19.38;;;3.45;;
70761;SDS011;58360;0.000;0.000;2023-05-16T04:58:39;18.27;;;3.20;;
70761;SDS011;58360;0.000;0.000;2023-05-16T05:01:04;10.35;;;2.53;;
70761;SDS011;58360;0.000;0.000;2023-05-16T05:03:30;17.13;;;3.60;;
70761;SDS011;58360;0.000;0.000;2023-05-16T05:05:56;16.20;;;2.70;;
70761;SDS011;58360;0.000;0.000;2023-05-16T05:08:21;15.20;;;2.78;;
70761;SDS011;58360;0.000;0.000;2023-05-16T05:10:47;12.48;;;2.45;;
70761;SDS011;58360;0.000;0.000;2023-05-16T05:13:13;13.63;;;2.67;;
70761;SDS011;58360;0.000;0.000;2023-05-16T05:15:38;15.32;;;2.50;;
70761;SDS011;58360;0.000;0.000;2023-05-16T05:18:04;18.95;;;3.40;;
70761;SDS011;58360;0.000;0.000;2023-05-16T05:20:30;11.48;;;2.63;;
70761;SDS011;58360;0.000;0.000;2023-05-16T05:22:55;19.17;;;2.85;;
70761;SDS011;58360;0.000;0.000;2023-05-16T05:25:21;9.63;;;2.10;;
70761;SDS011;58360;0.000;0.000;2023-05-16T05:27:47;11.20;;;2.17;;
70761;SDS011;58360;0.000;0.000;2023-05-16T05:30:12;14.02;;;2.63;;
70761;SDS011;58360;0.000;0.000;2023-05-16T05:32:38;12.00;;;2.42;;
70761;SDS011;58360;0.000;0.000;2023-05-16T05:35:04;17.55;;;2.53;;
70761;SDS011;58360;0.000;0.000;2023-05-16T05:37:30;13.50;;;2.63;;
70761;SDS011;58360;0.000;0.000;2023-05-16T05:39:56;8.35;;;2.38;;
70761;SDS011;58360;0.000;0.000;2023-05-16T05:42:21;8.95;;;2.97;;
70761;SDS011;58360;0.000;0.000;2023-05-16T05:44:48;11.32;;;3.00;;
70761;SDS011;58360;0.000;0.000;2023-05-16T05:47:14;14.70;;;2.53;;
70761;SDS011;58360;0.000;0.000;2023-05-16T05:49:40;11.95;;;2.58;;
70761;SDS011;58360;0.000;0.000;2023-05-16T05:52:06;14.45;;;2.45;;
70761;SDS011;58360;0.000;0.000;2023-05-16T05:54:32;17.63;;;2.78;;
70761;SDS011;58360;0.000;0.000;2023-05-16T05:56:57;13.13;;;2.67;;
70761;SDS011;58360;0.000;0.000;2023-05-16T05:59:23;11.57;;;2.50;;
70761;SDS011;58360;0.000;0.000;2023-05-16T06:01:49;15.82;;;2.60;;
70761;SDS011;58360;0.000;0.000;2023-05-16T06:04:17;16.42;;;2.55;;
70761;SDS011;58360;0.000;0.000;2023-05-16T06:06:43;10.27;;;2.42;;
70761;SDS011;58360;0.000;0.000;2023-05-16T06:09:09;9.95;;;2.78;;
70761;SDS011;58360;0.000;0.000;2023-05-16T06:11:35;18.40;;;3.05;;
70761;SDS011;58360;0.000;0.000;2023-05-16T06:14:01;12.02;;;2.20;;
70761;SDS011;58360;0.000;0.000;2023-05-16T06:16:26;13.00;;;2.50;;
70761;SDS011;58360;0.000;0.000;2023-05-16T06:18:52;10.23;;;2.20;;
70761;SDS011;58360;0.000;0.000;2023-05-16T06:21:18;15.68;;;2.50;;
70761;SDS011;58360;0.000;0.000;2023-05-16T06:23:43;14.82;;;3.13;;
70761;SDS011;58360;0.000;0.000;2023-05-16T06:26:09;14.43;;;2.30;;
70761;SDS011;58360;0.000;0.000;2023-05-16T06:28:35;11.02;;;2.25;;
70761;SDS011;58360;0.000;0.000;2023-05-16T06:31:00;18.08;;;3.05;;
70761;SDS011;58360;0.000;0.000;2023-05-16T06:33:26;12.70;;;2.22;;
70761;SDS011;58360;0.000;0.000;2023-05-16T06:35:52;10.68;;;2.30;;
70761;SDS011;58360;0.000;0.000;2023-05-16T06:38:18;10.23;;;2.42;;
70761;SDS011;58360;0.000;0.000;2023-05-16T06:40:44;10.57;;;3.00;;
70761;SDS011;58360;0.000;0.000;2023-05-16T06:43:09;10.02;;;1.85;;
70761;SDS011;58360;0.000;0.000;2023-05-16T06:45:36;10.18;;;2.80;;
70761;SDS011;58360;0.000;0.000;2023-05-16T06:48:02;12.15;;;2.05;;
70761;SDS011;58360;0.000;0.000;2023-05-16T06:50:28;12.75;;;2.40;;
70761;SDS011;58360;0.000;0.000;2023-05-16T06:52:53;11.55;;;2.30;;
70761;SDS011;58360;0.000;0.000;2023-05-16T06:55:19;11.13;;;2.38;;
70761;SDS011;58360;0.000;0.000;2023-05-16T06:57:45;12.88;;;2.80;;
70761;SDS011;58360;0.000;0.000;2023-05-16T07:00:12;10.50;;;2.15;;
70761;SDS011;58360;0.000;0.000;2023-05-16T07:02:38;12.52;;;2.20;;
70761;SDS011;58360;0.000;0.000;2023-05-16T07:05:03;10.13;;;2.00;;
70761;SDS011;58360;0.000;0.000;2023-05-16T07:07:30;13.93;;;2.40;;
70761;SDS011;58360;0.000;0.000;2023-05-16T07:09:56;9.43;;;2.10;;
70761;SDS011;58360;0.000;0.000;2023-05-16T07:12:21;8.90;;;1.80;;
70761;SDS011;58360;0.000;0.000;2023-05-16T07:14:47;9.63;;;2.20;;
70761;SDS011;58360;0.000;0.000;2023-05-16T07:17:12;12.35;;;2.10;;
70761;SDS011;58360;0.000;0.000;2023-05-16T07:19:38;9.82;;;2.30;;
70761;SDS011;58360;0.000;0.000;2023-05-16T07:22:04;14.77;;;2.30;;
70761;SDS011;58360;0.000;0.000;2023-05-16T07:24:29;12.95;;;2.95;;
70761;SDS011;58360;0.000;0.000;2023-05-16T07:26:55;11.38;;;2.13;;
70761;SDS011;58360;0.000;0.000;2023-05-16T07:29:21;9.43;;;1.77;;
70761;SDS011;58360;0.000;0.000;2023-05-16T07:31:46;6.93;;;2.08;;
70761;SDS011;58360;0.000;0.000;2023-05-16T07:34:12;11.32;;;2.25;;
70761;SDS011;58360;0.000;0.000;2023-05-16T07:36:37;9.30;;;1.98;;
70761;SDS011;58360;0.000;0.000;2023-05-16T07:39:03;9.23;;;2.08;;
70761;SDS011;58360;0.000;0.000;2023-05-16T07:41:29;12.15;;;2.17;;
70761;SDS011;58360;0.000;0.000;2023-05-16T07:43:55;11.90;;;2.55;;
70761;SDS011;58360;0.000;0.000;2023-05-16T07:46:21;8.80;;;2.10;;
70761;SDS011;58360;0.000;0.000;2023-05-16T07:48:47;7.90;;;1.63;;
70761;SDS011;58360;0.000;0.000;2023-05-16T07:51:12;7.50;;;1.90;;
70761;SDS011;58360;0.000;0.000;2023-05-16T07:53:38;8.00;;;1.92;;
70761;SDS011;58360;0.000;0.000;2023-05-16T07:56:03;5.28;;;1.85;;
70761;SDS011;58360;0.000;0.000;2023-05-16T07:58:30;8.30;;;2.50;;
70761;SDS011;58360;0.000;0.000;2023-05-16T08:00:56;6.57;;;1.75;;
70761;SDS011;58360;0.000;0.000;2023-05-16T08:03:22;6.35;;;2.03;;
70761;SDS011;58360;0.000;0.000;2023-05-16T08:05:48;10.60;;;2.60;;
70761;SDS011;58360;0.000;0.000;2023-05-16T08:08:14;12.32;;;2.30;;
70761;SDS011;58360;0.000;0.000;2023-05-16T08:10:39;12.73;;;2.17;;
70761;SDS011;58360;0.000;0.000;2023-05-16T08:13:05;13.98;;;5.95;;
70761;SDS011;58360;0.000;0.000;2023-05-16T08:15:34;9.02;;;2.10;;
70761;SDS011;58360;0.000;0.000;2023-05-16T08:17:59;6.13;;;1.80;;
70761;SDS011;58360;0.000;0.000;2023-05-16T08:20:25;7.72;;;1.73;;
70761;SDS011;58360;0.000;0.000;2023-05-16T08:22:51;7.90;;;2.08;;
70761;SDS011;58360;0.000;0.000;2023-05-16T08:25:18;10.70;;;2.40;;
70761;SDS011;58360;0.000;0.000;2023-05-16T08:27:44;6.90;;;2.10;;
70761;SDS011;58360;0.000;0.000;2023-05-16T08:30:10;7.10;;;2.15;;
70761;SDS011;58360;0.000;0.000;2023-05-16T08:32:37;10.27;;;2.22;;
70761;SDS011;58360;0.000;0.000;2023-05-16T08:35:02;6.47;;;1.83;;
70761;SDS011;58360;0.000;0.000;2023-05-16T08:37:28;6.57;;;1.63;;
70761;SDS011;58360;0.000;0.000;2023-05-16T08:39:54;6.60;;;1.88;;
70761;SDS011;58360;0.000;0.000;2023-05-16T08:42:20;9.32;;;2.13;;
70761;SDS011;58360;0.000;0.000;2023-05-16T08:44:45;10.18;;;1.80;;
70761;SDS011;58360;0.000;0.000;2023-05-16T08:47:12;7.90;;;1.80;;
70761;SDS011;58360;0.000;0.000;2023-05-16T08:49:42;5.68;;;1.80;;
70761;SDS011;58360;0.000;0.000;2023-05-16T08:52:11;9.55;;;1.80;;
70761;SDS011;58360;0.000;0.000;2023-05-16T08:54:38;6.43;;;2.45;;
70761;SDS011;58360;0.000;0.000;2023-05-16T08:57:05;6.22;;;2.05;;
70761;SDS011;58360;0.000;0.000;2023-05-16T08:59:31;7.63;;;1.80;;
70761;SDS011;58360;0.000;0.000;2023-05-16T09:01:57;8.88;;;1.83;;
70761;SDS011;58360;0.000;0.000;2023-05-16T09:04:23;7.18;;;1.85;;
70761;SDS011;58360;0.000;0.000;2023-05-16T09:06:49;4.70;;;1.55;;
70761;SDS011;58360;0.000;0.000;2023-05-16T09:09:16;7.07;;;1.85;;
70761;SDS011;58360;0.000;0.000;2023-05-16T09:11:42;5.07;;;1.60;;
70761;SDS011;58360;0.000;0.000;2023-05-16T09:14:07;9.70;;;1.67;;
70761;SDS011;58360;0.000;0.000;2023-05-16T09:16:33;5.88;;;1.58;;
70761;SDS011;58360;0.000;0.000;2023-05-16T09:18:59;9.25;;;2.10;;
70761;SDS011;58360;0.000;0.000;2023-05-16T09:21:29;7.07;;;1.67;;
70761;SDS011;58360;0.000;0.000;2023-05-16T09:24:04;7.45;;;1.70;;
70761;SDS011;58360;0.000;0.000;2023-05-16T09:26:34;6.95;;;1.65;;
70761;SDS011;58360;0.000;0.000;2023-05-16T09:29:07;10.48;;;2.17;;
70761;SDS011;58360;0.000;0.000;2023-05-16T09:31:35;6.57;;;1.83;;
70761;SDS011;58360;0.000;0.000;2023-05-16T09:34:03;8.38;;;1.80;;
70761;SDS011;58360;0.000;0.000;2023-05-16T09:36:31;6.45;;;1.85;;
70761;SDS011;58360;0.000;0.000;2023-05-16T09:38:57;7.05;;;2.63;;
70761;SDS011;58360;0.000;0.000;2023-05-16T09:41:23;6.80;;;1.67;;
70761;SDS011;58360;0.000;0.000;2023-05-16T09:43:49;8.65;;;3.15;;
70761;SDS011;58360;0.000;0.000;2023-05-16T09:46:15;5.07;;;2.35;;
70761;SDS011;58360;0.000;0.000;2023-05-16T09:48:43;8.85;;;2.63;;
70761;SDS011;58360;0.000;0.000;2023-05-16T09:51:12;9.60;;;3.65;;
70761;SDS011;58360;0.000;0.000;2023-05-16T09:53:39;9.52;;;4.43;;
70761;SDS011;58360;0.000;0.000;2023-05-16T09:56:06;8.45;;;3.80;;
70761;SDS011;58360;0.000;0.000;2023-05-16T09:58:37;12.50;;;2.45;;
70761;SDS011;58360;0.000;0.000;2023-05-16T10:01:04;13.80;;;6.47;;
70761;SDS011;58360;0.000;0.000;2023-05-16T10:03:32;6.38;;;1.75;;
70761;SDS011;58360;0.000;0.000;2023-05-16T10:05:59;8.05;;;2.38;;
70761;SDS011;58360;0.000;0.000;2023-05-16T10:08:26;11.57;;;4.78;;
70761;SDS011;58360;0.000;0.000;2023-05-16T10:10:54;8.88;;;2.63;;
70761;SDS011;58360;0.000;0.000;2023-05-16T10:13:30;13.82;;;5.57;;
70761;SDS011;58360;0.000;0.000;2023-05-16T10:15:57;11.13;;;4.10;;
70761;SDS011;58360;0.000;0.000;2023-05-16T10:18:33;6.07;;;3.20;;
70761;SDS011;58360;0.000;0.000;2023-05-16T10:21:02;16.60;;;7.88;;
70761;SDS011;58360;0.000;0.000;2023-05-16T10:23:30;16.00;;;7.63;;
70761;SDS011;58360;0.000;0.000;2023-05-16T10:25:57;16.58;;;8.25;;
70761;SDS011;58360;0.000;0.000;2023-05-16T10:28:24;8.60;;;3.55;;
70761;SDS011;58360;0.000;0.000;2023-05-16T10:30:51;13.75;;;5.82;;
70761;SDS011;58360;0.000;0.000;2023-05-16T10:33:17;19.00;;;9.40;;
70761;SDS011;58360;0.000;0.000;2023-05-16T10:35:46;13.35;;;5.38;;
70761;SDS011;58360;0.000;0.000;2023-05-16T10:38:12;24.70;;;12.82;;
70761;SDS011;58360;0.000;0.000;2023-05-16T10:40:40;12.10;;;4.65;;
70761;SDS011;58360;0.000;0.000;2023-05-16T10:43:07;13.40;;;5.22;;
70761;SDS011;58360;0.000;0.000;2023-05-16T10:45:33;10.15;;;2.47;;
70761;SDS011;58360;0.000;0.000;2023-05-16T10:50:43;16.05;;;7.75;;
70761;SDS011;58360;0.000;0.000;2023-05-16T10:53:13;14.13;;;6.90;;
70761;SDS011;58360;0.000;0.000;2023-05-16T11:09:39;6.68;;;2.53;;
70761;SDS011;58360;0.000;0.000;2023-05-16T11:14:25;7.68;;;2.30;;
70761;SDS011;58360;0.000;0.000;2023-05-16T11:17:07;6.45;;;2.53;;
70761;SDS011;58360;0.000;0.000;2023-05-16T11:19:43;6.35;;;2.22;;
70761;SDS011;58360;0.000;0.000;2023-05-16T11:22:21;7.35;;;2.55;;
70761;SDS011;58360;0.000;0.000;2023-05-16T11:24:54;5.68;;;1.80;;
70761;SDS011;58360;0.000;0.000;2023-05-16T11:27:23;6.72;;;2.30;;
70761;SDS011;58360;0.000;0.000;2023-05-16T11:30:00;5.20;;;1.83;;
70761;SDS011;58360;0.000;0.000;2023-05-16T11:32:28;7.47;;;2.60;;
70761;SDS011;58360;0.000;0.000;2023-05-16T11:34:55;6.07;;;1.80;;
70761;SDS011;58360;0.000;0.000;2023-05-16T11:37:22;8.63;;;1.80;;
70761;SDS011;58360;0.000;0.000;2023-05-16T11:39:48;5.65;;;1.80;;
70761;SDS011;58360;0.000;0.000;2023-05-16T11:42:13;8.35;;;2.40;;
70761;SDS011;58360;0.000;0.000;2023-05-16T11:44:40;6.25;;;1.70;;
70761;SDS011;58360;0.000;0.000;2023-05-16T11:47:05;7.45;;;1.60;;
70761;SDS011;58360;0.000;0.000;2023-05-16T11:49:32;6.10;;;1.55;;
70761;SDS011;58360;0.000;0.000;2023-05-16T11:51:59;6.15;;;2.00;;
70761;SDS011;58360;0.000;0.000;2023-05-16T11:54:25;6.13;;;1.48;;
70761;SDS011;58360;0.000;0.000;2023-05-16T11:56:51;4.57;;;1.60;;
70761;SDS011;58360;0.000;0.000;2023-05-16T11:59:18;6.65;;;2.08;;
70761;SDS011;58360;0.000;0.000;2023-05-16T12:01:44;3.92;;;1.40;;
70761;SDS011;58360;0.000;0.000;2023-05-16T12:04:13;5.15;;;1.90;;
70761;SDS011;58360;0.000;0.000;2023-05-16T12:06:40;6.38;;;1.90;;
70761;SDS011;58360;0.000;0.000;2023-05-16T12:09:13;6.80;;;1.95;;
70761;SDS011;58360;0.000;0.000;2023-05-16T12:11:40;5.45;;;1.60;;
70761;SDS011;58360;0.000;0.000;2023-05-16T12:14:07;6.15;;;1.67;;
70761;SDS011;58360;0.000;0.000;2023-05-16T12:16:35;6.10;;;1.58;;
70761;SDS011;58360;0.000;0.000;2023-05-16T12:19:05;4.65;;;1.52;;
70761;SDS011;58360;0.000;0.000;2023-05-16T12:21:31;7.78;;;2.05;;
70761;SDS011;58360;0.000;0.000;2023-05-16T12:23:57;4.80;;;1.25;;
70761;SDS011;58360;0.000;0.000;2023-05-16T12:26:26;7.40;;;2.33;;
70761;SDS011;58360;0.000;0.000;2023-05-16T12:28:57;7.20;;;2.03;;
70761;SDS011;58360;0.000;0.000;2023-05-16T12:31:27;5.78;;;1.73;;
70761;SDS011;58360;0.000;0.000;2023-05-16T12:33:54;6.22;;;1.48;;
70761;SDS011;58360;0.000;0.000;2023-05-16T12:36:24;6.45;;;1.60;;
70761;SDS011;58360;0.000;0.000;2023-05-16T12:38:51;4.13;;;1.65;;
70761;SDS011;58360;0.000;0.000;2023-05-16T12:41:21;9.23;;;1.85;;
70761;SDS011;58360;0.000;0.000;2023-05-16T12:43:47;6.30;;;1.52;;
70761;SDS011;58360;0.000;0.000;2023-05-16T12:46:14;9.23;;;1.95;;
70761;SDS011;58360;0.000;0.000;2023-05-16T12:48:40;5.03;;;1.58;;
70761;SDS011;58360;0.000;0.000;2023-05-16T12:53:40;7.38;;;1.88;;
70761;SDS011;58360;0.000;0.000;2023-05-16T12:56:08;5.63;;;1.60;;
70761;SDS011;58360;0.000;0.000;2023-05-16T12:58:35;8.38;;;1.88;;
70761;SDS011;58360;0.000;0.000;2023-05-16T13:01:01;8.13;;;2.22;;
70761;SDS011;58360;0.000;0.000;2023-05-16T13:03:27;6.50;;;1.80;;
70761;SDS011;58360;0.000;0.000;2023-05-16T13:05:54;7.00;;;1.83;;
70761;SDS011;58360;0.000;0.000;2023-05-16T13:08:20;5.35;;;1.85;;
70761;SDS011;58360;0.000;0.000;2023-05-16T13:10:46;8.77;;;1.50;;
70761;SDS011;58360;0.000;0.000;2023-05-16T13:13:11;6.28;;;1.95;;
70761;SDS011;58360;0.000;0.000;2023-05-16T13:15:38;8.05;;;2.35;;
70761;SDS011;58360;0.000;0.000;2023-05-16T13:18:06;5.43;;;1.85;;
70761;SDS011;58360;0.000;0.000;2023-05-16T13:20:32;6.25;;;1.70;;
70761;SDS011;58360;0.000;0.000;2023-05-16T13:22:58;6.00;;;1.83;;
70761;SDS011;58360;0.000;0.000;2023-05-16T13:25:23;4.63;;;1.42;;
70761;SDS011;58360;0.000;0.000;2023-05-16T13:27:49;10.07;;;2.08;;
70761;SDS011;58360;0.000;0.000;2023-05-16T13:30:15;5.70;;;1.27;;
70761;SDS011;58360;0.000;0.000;2023-05-16T13:32:40;6.65;;;1.73;;
70761;SDS011;58360;0.000;0.000;2023-05-16T13:35:06;12.52;;;2.20;;
70761;SDS011;58360;0.000;0.000;2023-05-16T13:37:33;8.13;;;2.20;;
70761;SDS011;58360;0.000;0.000;2023-05-16T13:39:59;3.95;;;1.35;;
70761;SDS011;58360;0.000;0.000;2023-05-16T13:42:25;4.65;;;1.20;;
70761;SDS011;58360;0.000;0.000;2023-05-16T13:44:51;9.52;;;1.85;;
70761;SDS011;58360;0.000;0.000;2023-05-16T13:47:17;12.18;;;2.25;;
70761;SDS011;58360;0.000;0.000;2023-05-16T13:49:42;8.30;;;1.67;;
70761;SDS011;58360;0.000;0.000;2023-05-16T13:52:08;7.82;;;1.92;;
70761;SDS011;58360;0.000;0.000;2023-05-16T13:54:34;7.90;;;2.05;;
70761;SDS011;58360;0.000;0.000;2023-05-16T13:57:00;7.93;;;2.45;;
70761;SDS011;58360;0.000;0.000;2023-05-16T13:59:27;8.18;;;1.80;;
70761;SDS011;58360;0.000;0.000;2023-05-16T14:01:53;9.18;;;1.92;;
70761;SDS011;58360;0.000;0.000;2023-05-16T14:04:19;7.88;;;1.88;;
70761;SDS011;58360;0.000;0.000;2023-05-16T14:06:44;7.38;;;1.88;;
70761;SDS011;58360;0.000;0.000;2023-05-16T14:09:10;7.18;;;1.77;;
70761;SDS011;58360;0.000;0.000;2023-05-16T14:11:37;7.15;;;1.65;;
70761;SDS011;58360;0.000;0.000;2023-05-16T14:14:02;6.03;;;1.67;;
70761;SDS011;58360;0.000;0.000;2023-05-16T14:16:28;6.25;;;1.52;;
70761;SDS011;58360;0.000;0.000;2023-05-16T14:18:55;7.57;;;1.90;;
70761;SDS011;58360;0.000;0.000;2023-05-16T14:21:21;7.45;;;1.80;;
70761;SDS011;58360;0.000;0.000;2023-05-16T14:23:47;6.43;;;1.38;;
70761;SDS011;58360;0.000;0.000;2023-05-16T14:26:13;8.93;;;1.70;;
70761;SDS011;58360;0.000;0.000;2023-05-16T14:28:39;5.63;;;1.40;;
70761;SDS011;58360;0.000;0.000;2023-05-16T14:31:05;8.38;;;1.88;;
70761;SDS011;58360;0.000;0.000;2023-05-16T14:33:31;3.28;;;1.33;;
70761;SDS011;58360;0.000;0.000;2023-05-16T14:35:57;3.80;;;1.20;;
70761;SDS011;58360;0.000;0.000;2023-05-16T14:38:22;5.80;;;1.42;;
70761;SDS011;58360;0.000;0.000;2023-05-16T14:40:48;6.85;;;1.85;;
70761;SDS011;58360;0.000;0.000;2023-05-16T14:43:14;7.43;;;1.38;;
70761;SDS011;58360;0.000;0.000;2023-05-16T14:45:40;5.45;;;1.45;;
70761;SDS011;58360;0.000;0.000;2023-05-16T14:48:06;4.93;;;1.63;;
70761;SDS011;58360;0.000;0.000;2023-05-16T14:50:32;8.10;;;1.67;;
70761;SDS011;58360;0.000;0.000;2023-05-16T14:52:58;11.45;;;1.38;;
70761;SDS011;58360;0.000;0.000;2023-05-16T14:55:24;6.05;;;1.50;;
70761;SDS011;58360;0.000;0.000;2023-05-16T14:57:50;5.50;;;1.50;;
70761;SDS011;58360;0.000;0.000;2023-05-16T15:00:16;5.53;;;1.27;;
70761;SDS011;58360;0.000;0.000;2023-05-16T15:05:12;3.10;;;1.00;;
70761;SDS011;58360;0.000;0.000;2023-05-16T15:07:38;6.22;;;1.67;;
70761;SDS011;58360;0.000;0.000;2023-05-16T15:10:04;3.35;;;1.13;;
70761;SDS011;58360;0.000;0.000;2023-05-16T15:12:30;6.30;;;1.50;;
70761;SDS011;58360;0.000;0.000;2023-05-16T15:14:56;7.45;;;1.30;;
70761;SDS011;58360;0.000;0.000;2023-05-16T15:17:22;4.13;;;1.50;;
70761;SDS011;58360;0.000;0.000;2023-05-16T15:19:47;6.85;;;1.60;;
70761;SDS011;58360;0.000;0.000;2023-05-16T15:22:13;6.43;;;1.58;;
70761;SDS011;58360;0.000;0.000;2023-05-16T15:24:39;7.45;;;1.85;;
70761;SDS011;58360;0.000;0.000;2023-05-16T15:27:05;4.57;;;1.50;;
70761;SDS011;58360;0.000;0.000;2023-05-16T15:29:30;6.05;;;1.63;;